sensor_id;sensor_type;location;lat;lon;timestamp;P1;P2;P0
65012;PMS5003;51715;39.432;-77.518;2023-03-14T00:00:30;21;20;
65012;PMS5003;51715;39.432;-77.518;2023-03-14T00:02:58;29;26;
65012;PMS5003;51715;39.432;-77.518;2023-03-14T00:05:25;13;10;
65012;PMS5003;51715;39.432;-77.518;2023-03-14T00:07:54;25;24;
65012;PMS5003;51715;39.432;-77.518;2023-03-14T00:10:22;17;17;
65012;PMS5003;51715;39.432;-77.518;2023-03-14T00:12:51;20;17;
65012;PMS5003;51715;39.432;-77.518;2023-03-14T00:15:20;30;29;
65012;PMS5003;51715;39.432;-77.518;2023-03-14T00:17:49;23;21;
65012;PMS5003;51715;39.432;-77.518;2023-03-14T00:20:18;27;27;
65012;PMS5003;51715;39.432;-77.518;2023-03-14T00:22:47;12;12;
65012;PMS5003;51715;39.432;-77.518;2023-03-14T00:25:16;16;15;
65012;PMS5003;51715;39.432;-77.518;2023-03-14T00:27:45;14;12;
65012;PMS5003;51715;39.432;-77.518;2023-03-14T00:30:14;10;9;
65012;PMS5003;51715;39.432;-77.518;2023-03-14T00:32:43;11;10;
65012;PMS5003;51715;39.432;-77.518;2023-03-14T00:35:12;11;11;
65012;PMS5003;51715;39.432;-77.518;2023-03-14T00:37:40;17;15;
65012;PMS5003;51715;39.432;-77.518;2023-03-14T00:40:10;17;17;
65012;PMS5003;51715;39.432;-77.518;2023-03-14T00:42:39;16;16;
65012;PMS5003;51715;39.432;-77.518;2023-03-14T00:45:08;12;10;
65012;PMS5003;51715;39.432;-77.518;2023-03-14T00:47:37;15;14;
65012;PMS5003;51715;39.432;-77.518;2023-03-14T00:50:06;12;11;
65012;PMS5003;51715;39.432;-77.518;2023-03-14T00:52:36;8;8;
65012;PMS5003;51715;39.432;-77.518;2023-03-14T00:55:05;10;10;
65012;PMS5003;51715;39.432;-77.518;2023-03-14T00:57:35;15;15;
65012;PMS5003;51715;39.432;-77.518;2023-03-14T01:00:04;14;11;
65012;PMS5003;51715;39.432;-77.518;2023-03-14T01:02:33;27;27;
65012;PMS5003;51715;39.432;-77.518;2023-03-14T01:05:02;38;34;
65012;PMS5003;51715;39.432;-77.518;2023-03-14T01:07:31;29;27;
65012;PMS5003;51715;39.432;-77.518;2023-03-14T01:10:00;26;26;
65012;PMS5003;51715;39.432;-77.518;2023-03-14T01:12:30;20;19;
65012;PMS5003;51715;39.432;-77.518;2023-03-14T01:14:58;28;25;
65012;PMS5003;51715;39.432;-77.518;2023-03-14T01:17:26;38;36;
65012;PMS5003;51715;39.432;-77.518;2023-03-14T01:19:56;33;29;
65012;PMS5003;51715;39.432;-77.518;2023-03-14T01:22:26;26;26;
65012;PMS5003;51715;39.432;-77.518;2023-03-14T01:24:55;17;17;
65012;PMS5003;51715;39.432;-77.518;2023-03-14T01:27:23;15;14;
65012;PMS5003;51715;39.432;-77.518;2023-03-14T01:29:52;12;10;
65012;PMS5003;51715;39.432;-77.518;2023-03-14T01:32:20;9;9;
65012;PMS5003;51715;39.432;-77.518;2023-03-14T01:34:48;11;11;
65012;PMS5003;51715;39.432;-77.518;2023-03-14T01:37:16;13;12;
65012;PMS5003;51715;39.432;-77.518;2023-03-14T01:39:47;9;9;
65012;PMS5003;51715;39.432;-77.518;2023-03-14T01:42:15;12;9;
65012;PMS5003;51715;39.432;-77.518;2023-03-14T01:44:47;14;12;
65012;PMS5003;51715;39.432;-77.518;2023-03-14T01:47:18;11;9;
65012;PMS5003;51715;39.432;-77.518;2023-03-14T01:49:48;11;11;
65012;PMS5003;51715;39.432;-77.518;2023-03-14T01:52:21;9;9;
65012;PMS5003;51715;39.432;-77.518;2023-03-14T01:54:54;13;13;
65012;PMS5003;51715;39.432;-77.518;2023-03-14T01:57:28;10;10;
65012;PMS5003;51715;39.432;-77.518;2023-03-14T02:00:07;12;10;
65012;PMS5003;51715;39.432;-77.518;2023-03-14T02:02:38;21;20;
65012;PMS5003;51715;39.432;-77.518;2023-03-14T02:05:09;14;14;
65012;PMS5003;51715;39.432;-77.518;2023-03-14T02:07:39;20;20;
65012;PMS5003;51715;39.432;-77.518;2023-03-14T02:10:13;6;6;
65012;PMS5003;51715;39.432;-77.518;2023-03-14T02:12:43;8;6;
65012;PMS5003;51715;39.432;-77.518;2023-03-14T02:15:13;17;14;
65012;PMS5003;51715;39.432;-77.518;2023-03-14T02:17:42;10;9;
65012;PMS5003;51715;39.432;-77.518;2023-03-14T02:20:15;15;12;
65012;PMS5003;51715;39.432;-77.518;2023-03-14T02:22:54;15;12;
65012;PMS5003;51715;39.432;-77.518;2023-03-14T02:25:26;16;13;
65012;PMS5003;51715;39.432;-77.518;2023-03-14T02:28:04;11;10;
65012;PMS5003;51715;39.432;-77.518;2023-03-14T02:30:33;7;6;
65012;PMS5003;51715;39.432;-77.518;2023-03-14T02:33:03;8;6;
65012;PMS5003;51715;39.432;-77.518;2023-03-14T02:35:34;6;6;
65012;PMS5003;51715;39.432;-77.518;2023-03-14T02:38:06;11;11;
65012;PMS5003;51715;39.432;-77.518;2023-03-14T02:40:42;11;11;
65012;PMS5003;51715;39.432;-77.518;2023-03-14T02:43:11;8;7;
65012;PMS5003;51715;39.432;-77.518;2023-03-14T02:45:41;10;10;
65012;PMS5003;51715;39.432;-77.518;2023-03-14T02:48:13;6;6;
65012;PMS5003;51715;39.432;-77.518;2023-03-14T02:50:45;7;7;
65012;PMS5003;51715;39.432;-77.518;2023-03-14T02:53:19;8;8;
65012;PMS5003;51715;39.432;-77.518;2023-03-14T02:55:51;6;6;
65012;PMS5003;51715;39.432;-77.518;2023-03-14T02:58:21;9;8;
65012;PMS5003;51715;39.432;-77.518;2023-03-14T03:00:49;7;7;
65012;PMS5003;51715;39.432;-77.518;2023-03-14T03:03:20;7;6;
65012;PMS5003;51715;39.432;-77.518;2023-03-14T03:05:49;7;6;
65012;PMS5003;51715;39.432;-77.518;2023-03-14T03:08:18;7;7;
65012;PMS5003;51715;39.432;-77.518;2023-03-14T03:10:49;7;7;
65012;PMS5003;51715;39.432;-77.518;2023-03-14T03:13:18;8;8;
65012;PMS5003;51715;39.432;-77.518;2023-03-14T03:15:47;7;7;
65012;PMS5003;51715;39.432;-77.518;2023-03-14T03:18:16;6;6;
65012;PMS5003;51715;39.432;-77.518;2023-03-14T03:20:45;11;10;
65012;PMS5003;51715;39.432;-77.518;2023-03-14T03:23:14;8;8;
65012;PMS5003;51715;39.432;-77.518;2023-03-14T03:25:47;7;7;
65012;PMS5003;51715;39.432;-77.518;2023-03-14T03:28:17;15;14;
65012;PMS5003;51715;39.432;-77.518;2023-03-14T03:30:46;9;8;
65012;PMS5003;51715;39.432;-77.518;2023-03-14T03:33:14;12;12;
65012;PMS5003;51715;39.432;-77.518;2023-03-14T03:35:43;8;8;
65012;PMS5003;51715;39.432;-77.518;2023-03-14T03:38:13;9;9;
65012;PMS5003;51715;39.432;-77.518;2023-03-14T03:40:42;13;13;
65012;PMS5003;51715;39.432;-77.518;2023-03-14T03:43:10;9;9;
65012;PMS5003;51715;39.432;-77.518;2023-03-14T03:45:40;8;8;
65012;PMS5003;51715;39.432;-77.518;2023-03-14T03:48:08;8;8;
65012;PMS5003;51715;39.432;-77.518;2023-03-14T03:50:43;9;8;
65012;PMS5003;51715;39.432;-77.518;2023-03-14T03:53:12;10;10;
65012;PMS5003;51715;39.432;-77.518;2023-03-14T03:55:41;8;8;
65012;PMS5003;51715;39.432;-77.518;2023-03-14T03:58:10;8;7;
65012;PMS5003;51715;39.432;-77.518;2023-03-14T04:04:08;9;8;
65012;PMS5003;51715;39.432;-77.518;2023-03-14T04:06:36;9;8;
65012;PMS5003;51715;39.432;-77.518;2023-03-14T04:09:05;7;7;
65012;PMS5003;51715;39.432;-77.518;2023-03-14T04:11:34;8;7;
65012;PMS5003;51715;39.432;-77.518;2023-03-14T04:14:03;10;8;
65012;PMS5003;51715;39.432;-77.518;2023-03-14T04:16:32;7;7;
65012;PMS5003;51715;39.432;-77.518;2023-03-14T04:19:01;7;7;
65012;PMS5003;51715;39.432;-77.518;2023-03-14T04:21:29;7;7;
65012;PMS5003;51715;39.432;-77.518;2023-03-14T04:23:58;8;8;
65012;PMS5003;51715;39.432;-77.518;2023-03-14T04:26:26;7;6;
65012;PMS5003;51715;39.432;-77.518;2023-03-14T04:28:55;7;7;
65012;PMS5003;51715;39.432;-77.518;2023-03-14T04:31:23;12;11;
65012;PMS5003;51715;39.432;-77.518;2023-03-14T04:33:52;9;9;
65012;PMS5003;51715;39.432;-77.518;2023-03-14T04:36:20;6;6;
65012;PMS5003;51715;39.432;-77.518;2023-03-14T04:38:48;10;10;
65012;PMS5003;51715;39.432;-77.518;2023-03-14T04:41:16;12;9;
65012;PMS5003;51715;39.432;-77.518;2023-03-14T04:43:44;5;5;
65012;PMS5003;51715;39.432;-77.518;2023-03-14T04:46:13;13;11;
65012;PMS5003;51715;39.432;-77.518;2023-03-14T04:48:41;13;10;
65012;PMS5003;51715;39.432;-77.518;2023-03-14T04:51:08;12;12;
65012;PMS5003;51715;39.432;-77.518;2023-03-14T04:53:37;10;9;
65012;PMS5003;51715;39.432;-77.518;2023-03-14T04:56:06;11;10;
65012;PMS5003;51715;39.432;-77.518;2023-03-14T04:58:35;9;9;
65012;PMS5003;51715;39.432;-77.518;2023-03-14T05:01:11;11;9;
65012;PMS5003;51715;39.432;-77.518;2023-03-14T05:03:40;12;9;
65012;PMS5003;51715;39.432;-77.518;2023-03-14T05:06:09;12;11;
65012;PMS5003;51715;39.432;-77.518;2023-03-14T05:08:37;14;10;
65012;PMS5003;51715;39.432;-77.518;2023-03-14T05:11:06;10;10;
65012;PMS5003;51715;39.432;-77.518;2023-03-14T05:13:36;9;9;
65012;PMS5003;51715;39.432;-77.518;2023-03-14T05:16:05;12;11;
65012;PMS5003;51715;39.432;-77.518;2023-03-14T05:18:35;8;8;
65012;PMS5003;51715;39.432;-77.518;2023-03-14T05:21:04;10;10;
65012;PMS5003;51715;39.432;-77.518;2023-03-14T05:23:33;12;12;
65012;PMS5003;51715;39.432;-77.518;2023-03-14T05:26:01;10;9;
65012;PMS5003;51715;39.432;-77.518;2023-03-14T05:28:29;10;8;
65012;PMS5003;51715;39.432;-77.518;2023-03-14T05:30:58;14;12;
65012;PMS5003;51715;39.432;-77.518;2023-03-14T05:33:26;11;10;
65012;PMS5003;51715;39.432;-77.518;2023-03-14T05:35:54;11;11;
65012;PMS5003;51715;39.432;-77.518;2023-03-14T05:38:22;9;9;
65012;PMS5003;51715;39.432;-77.518;2023-03-14T05:40:50;10;9;
65012;PMS5003;51715;39.432;-77.518;2023-03-14T05:43:18;10;10;
65012;PMS5003;51715;39.432;-77.518;2023-03-14T05:45:46;10;9;
65012;PMS5003;51715;39.432;-77.518;2023-03-14T05:48:15;10;9;
65012;PMS5003;51715;39.432;-77.518;2023-03-14T05:50:44;11;10;
65012;PMS5003;51715;39.432;-77.518;2023-03-14T05:53:13;11;11;
65012;PMS5003;51715;39.432;-77.518;2023-03-14T05:55:41;10;10;
65012;PMS5003;51715;39.432;-77.518;2023-03-14T05:58:10;10;10;
65012;PMS5003;51715;39.432;-77.518;2023-03-14T06:00:39;11;10;
65012;PMS5003;51715;39.432;-77.518;2023-03-14T06:03:07;10;10;
65012;PMS5003;51715;39.432;-77.518;2023-03-14T06:05:35;17;11;
65012;PMS5003;51715;39.432;-77.518;2023-03-14T06:08:03;11;11;
65012;PMS5003;51715;39.432;-77.518;2023-03-14T06:10:32;17;14;
65012;PMS5003;51715;39.432;-77.518;2023-03-14T06:13:01;12;9;
65012;PMS5003;51715;39.432;-77.518;2023-03-14T06:15:30;12;10;
65012;PMS5003;51715;39.432;-77.518;2023-03-14T06:17:59;9;8;
65012;PMS5003;51715;39.432;-77.518;2023-03-14T06:20:27;10;9;
65012;PMS5003;51715;39.432;-77.518;2023-03-14T06:22:55;9;9;
65012;PMS5003;51715;39.432;-77.518;2023-03-14T06:25:23;12;10;
65012;PMS5003;51715;39.432;-77.518;2023-03-14T06:27:51;12;10;
65012;PMS5003;51715;39.432;-77.518;2023-03-14T06:30:20;12;11;
65012;PMS5003;51715;39.432;-77.518;2023-03-14T06:32:49;13;9;
65012;PMS5003;51715;39.432;-77.518;2023-03-14T06:35:17;10;10;
65012;PMS5003;51715;39.432;-77.518;2023-03-14T06:37:46;14;12;
65012;PMS5003;51715;39.432;-77.518;2023-03-14T06:40:14;12;9;
65012;PMS5003;51715;39.432;-77.518;2023-03-14T06:42:43;9;9;
65012;PMS5003;51715;39.432;-77.518;2023-03-14T06:45:11;11;10;
65012;PMS5003;51715;39.432;-77.518;2023-03-14T06:47:39;12;12;
65012;PMS5003;51715;39.432;-77.518;2023-03-14T06:50:08;11;11;
65012;PMS5003;51715;39.432;-77.518;2023-03-14T06:52:38;10;9;
65012;PMS5003;51715;39.432;-77.518;2023-03-14T06:55:06;11;10;
65012;PMS5003;51715;39.432;-77.518;2023-03-14T06:57:34;13;11;
65012;PMS5003;51715;39.432;-77.518;2023-03-14T07:00:03;11;10;
65012;PMS5003;51715;39.432;-77.518;2023-03-14T07:02:32;12;10;
65012;PMS5003;51715;39.432;-77.518;2023-03-14T07:05:00;13;13;
65012;PMS5003;51715;39.432;-77.518;2023-03-14T07:07:29;9;9;
65012;PMS5003;51715;39.432;-77.518;2023-03-14T07:09:58;10;10;
65012;PMS5003;51715;39.432;-77.518;2023-03-14T07:12:25;13;11;
65012;PMS5003;51715;39.432;-77.518;2023-03-14T07:14:53;13;13;
65012;PMS5003;51715;39.432;-77.518;2023-03-14T07:17:22;13;13;
65012;PMS5003;51715;39.432;-77.518;2023-03-14T07:19:51;11;10;
65012;PMS5003;51715;39.432;-77.518;2023-03-14T07:22:20;14;13;
65012;PMS5003;51715;39.432;-77.518;2023-03-14T07:24:48;16;13;
65012;PMS5003;51715;39.432;-77.518;2023-03-14T07:27:16;13;13;
65012;PMS5003;51715;39.432;-77.518;2023-03-14T07:29:45;14;13;
65012;PMS5003;51715;39.432;-77.518;2023-03-14T07:32:13;10;10;
65012;PMS5003;51715;39.432;-77.518;2023-03-14T07:34:41;12;11;
65012;PMS5003;51715;39.432;-77.518;2023-03-14T07:37:09;14;11;
65012;PMS5003;51715;39.432;-77.518;2023-03-14T07:39:37;11;11;
65012;PMS5003;51715;39.432;-77.518;2023-03-14T07:42:05;12;11;
65012;PMS5003;51715;39.432;-77.518;2023-03-14T07:44:34;11;11;
65012;PMS5003;51715;39.432;-77.518;2023-03-14T07:47:03;10;9;
65012;PMS5003;51715;39.432;-77.518;2023-03-14T07:47:11;9;9;
65012;PMS5003;51715;39.432;-77.518;2023-03-14T07:49:39;11;11;
65012;PMS5003;51715;39.432;-77.518;2023-03-14T07:52:07;13;13;
65012;PMS5003;51715;39.432;-77.518;2023-03-14T07:54:36;11;11;
65012;PMS5003;51715;39.432;-77.518;2023-03-14T07:57:04;15;14;
65012;PMS5003;51715;39.432;-77.518;2023-03-14T07:59:32;12;12;
65012;PMS5003;51715;39.432;-77.518;2023-03-14T08:02:01;15;15;
65012;PMS5003;51715;39.432;-77.518;2023-03-14T08:04:28;12;12;
65012;PMS5003;51715;39.432;-77.518;2023-03-14T08:06:57;10;10;
65012;PMS5003;51715;39.432;-77.518;2023-03-14T08:09:26;14;10;
65012;PMS5003;51715;39.432;-77.518;2023-03-14T08:11:54;10;10;
65012;PMS5003;51715;39.432;-77.518;2023-03-14T08:14:23;13;12;
65012;PMS5003;51715;39.432;-77.518;2023-03-14T08:16:51;9;9;
65012;PMS5003;51715;39.432;-77.518;2023-03-14T08:19:20;11;9;
65012;PMS5003;51715;39.432;-77.518;2023-03-14T08:21:48;11;10;
65012;PMS5003;51715;39.432;-77.518;2023-03-14T08:24:16;11;11;
65012;PMS5003;51715;39.432;-77.518;2023-03-14T08:26:44;13;13;
65012;PMS5003;51715;39.432;-77.518;2023-03-14T08:29:12;13;11;
65012;PMS5003;51715;39.432;-77.518;2023-03-14T08:31:40;14;12;
65012;PMS5003;51715;39.432;-77.518;2023-03-14T08:34:09;10;10;
65012;PMS5003;51715;39.432;-77.518;2023-03-14T08:36:37;10;10;
65012;PMS5003;51715;39.432;-77.518;2023-03-14T08:39:05;14;10;
65012;PMS5003;51715;39.432;-77.518;2023-03-14T08:41:33;12;9;
65012;PMS5003;51715;39.432;-77.518;2023-03-14T08:44:02;9;9;
65012;PMS5003;51715;39.432;-77.518;2023-03-14T08:46:31;9;6;
65012;PMS5003;51715;39.432;-77.518;2023-03-14T08:48:59;10;10;
65012;PMS5003;51715;39.432;-77.518;2023-03-14T08:51:28;10;10;
65012;PMS5003;51715;39.432;-77.518;2023-03-14T08:53:56;12;12;
65012;PMS5003;51715;39.432;-77.518;2023-03-14T08:56:24;15;12;
65012;PMS5003;51715;39.432;-77.518;2023-03-14T08:58:52;12;9;
65012;PMS5003;51715;39.432;-77.518;2023-03-14T09:01:20;14;9;
65012;PMS5003;51715;39.432;-77.518;2023-03-14T09:03:48;9;9;
65012;PMS5003;51715;39.432;-77.518;2023-03-14T09:06:17;8;8;
65012;PMS5003;51715;39.432;-77.518;2023-03-14T09:08:45;9;8;
65012;PMS5003;51715;39.432;-77.518;2023-03-14T09:11:14;11;11;
65012;PMS5003;51715;39.432;-77.518;2023-03-14T09:13:43;14;11;
65012;PMS5003;51715;39.432;-77.518;2023-03-14T09:16:12;13;13;
65012;PMS5003;51715;39.432;-77.518;2023-03-14T09:18:40;9;9;
65012;PMS5003;51715;39.432;-77.518;2023-03-14T09:21:08;11;11;
65012;PMS5003;51715;39.432;-77.518;2023-03-14T09:23:36;12;12;
65012;PMS5003;51715;39.432;-77.518;2023-03-14T09:26:05;12;11;
65012;PMS5003;51715;39.432;-77.518;2023-03-14T09:28:34;8;8;
65012;PMS5003;51715;39.432;-77.518;2023-03-14T09:31:05;8;6;
65012;PMS5003;51715;39.432;-77.518;2023-03-14T09:33:34;11;11;
65012;PMS5003;51715;39.432;-77.518;2023-03-14T09:36:02;9;8;
65012;PMS5003;51715;39.432;-77.518;2023-03-14T09:38:31;8;8;
65012;PMS5003;51715;39.432;-77.518;2023-03-14T09:41:00;13;12;
65012;PMS5003;51715;39.432;-77.518;2023-03-14T09:43:38;6;6;
65012;PMS5003;51715;39.432;-77.518;2023-03-14T09:46:09;17;15;
65012;PMS5003;51715;39.432;-77.518;2023-03-14T09:48:39;6;5;
65012;PMS5003;51715;39.432;-77.518;2023-03-14T09:51:11;11;9;
65012;PMS5003;51715;39.432;-77.518;2023-03-14T09:53:43;16;14;
65012;PMS5003;51715;39.432;-77.518;2023-03-14T09:56:13;12;10;
65012;PMS5003;51715;39.432;-77.518;2023-03-14T09:58:45;12;11;
65012;PMS5003;51715;39.432;-77.518;2023-03-14T10:01:19;7;7;
65012;PMS5003;51715;39.432;-77.518;2023-03-14T10:03:51;47;34;
65012;PMS5003;51715;39.432;-77.518;2023-03-14T10:06:22;8;8;
65012;PMS5003;51715;39.432;-77.518;2023-03-14T10:08:53;39;27;
65012;PMS5003;51715;39.432;-77.518;2023-03-14T10:11:23;13;8;
65012;PMS5003;51715;39.432;-77.518;2023-03-14T10:14:02;35;29;
65012;PMS5003;51715;39.432;-77.518;2023-03-14T10:16:34;24;19;
65012;PMS5003;51715;39.432;-77.518;2023-03-14T10:19:05;16;13;
65012;PMS5003;51715;39.432;-77.518;2023-03-14T10:21:38;11;9;
65012;PMS5003;51715;39.432;-77.518;2023-03-14T10:24:08;30;22;
65012;PMS5003;51715;39.432;-77.518;2023-03-14T10:26:47;10;10;
65012;PMS5003;51715;39.432;-77.518;2023-03-14T10:29:18;13;12;
65012;PMS5003;51715;39.432;-77.518;2023-03-14T10:31:47;11;8;
65012;PMS5003;51715;39.432;-77.518;2023-03-14T10:34:21;11;9;
65012;PMS5003;51715;39.432;-77.518;2023-03-14T10:36:52;8;8;
65012;PMS5003;51715;39.432;-77.518;2023-03-14T10:39:25;10;9;
65012;PMS5003;51715;39.432;-77.518;2023-03-14T10:42:02;21;18;
65012;PMS5003;51715;39.432;-77.518;2023-03-14T10:44:44;19;16;
65012;PMS5003;51715;39.432;-77.518;2023-03-14T10:47:17;18;17;
65012;PMS5003;51715;39.432;-77.518;2023-03-14T10:49:47;10;8;
65012;PMS5003;51715;39.432;-77.518;2023-03-14T10:52:19;5;5;
65012;PMS5003;51715;39.432;-77.518;2023-03-14T10:54:48;9;9;
65012;PMS5003;51715;39.432;-77.518;2023-03-14T10:57:21;10;9;
65012;PMS5003;51715;39.432;-77.518;2023-03-14T10:59:49;4;4;
65012;PMS5003;51715;39.432;-77.518;2023-03-14T11:02:32;9;7;
65012;PMS5003;51715;39.432;-77.518;2023-03-14T11:05:15;4;4;
65012;PMS5003;51715;39.432;-77.518;2023-03-14T11:07:53;10;10;
65012;PMS5003;51715;39.432;-77.518;2023-03-14T11:10:29;9;8;
65012;PMS5003;51715;39.432;-77.518;2023-03-14T11:13:02;7;7;
65012;PMS5003;51715;39.432;-77.518;2023-03-14T11:15:45;9;8;
65012;PMS5003;51715;39.432;-77.518;2023-03-14T11:18:27;3;3;
65012;PMS5003;51715;39.432;-77.518;2023-03-14T11:21:20;3;3;
65012;PMS5003;51715;39.432;-77.518;2023-03-14T11:23:57;2;2;
65012;PMS5003;51715;39.432;-77.518;2023-03-14T11:26:40;3;3;
65012;PMS5003;51715;39.432;-77.518;2023-03-14T11:29:19;6;4;
65012;PMS5003;51715;39.432;-77.518;2023-03-14T11:31:51;4;2;
65012;PMS5003;51715;39.432;-77.518;2023-03-14T11:34:24;5;5;
65012;PMS5003;51715;39.432;-77.518;2023-03-14T11:36:57;4;4;
65012;PMS5003;51715;39.432;-77.518;2023-03-14T11:39:34;2;2;
65012;PMS5003;51715;39.432;-77.518;2023-03-14T11:42:08;2;2;
65012;PMS5003;51715;39.432;-77.518;2023-03-14T11:44:39;3;3;
65012;PMS5003;51715;39.432;-77.518;2023-03-14T11:47:10;3;3;
65012;PMS5003;51715;39.432;-77.518;2023-03-14T11:49:43;3;3;
65012;PMS5003;51715;39.432;-77.518;2023-03-14T11:52:16;3;3;
65012;PMS5003;51715;39.432;-77.518;2023-03-14T11:54:51;3;3;
65012;PMS5003;51715;39.432;-77.518;2023-03-14T11:57:25;2;2;
65012;PMS5003;51715;39.432;-77.518;2023-03-14T11:59:55;2;2;
65012;PMS5003;51715;39.432;-77.518;2023-03-14T12:02:31;2;2;
65012;PMS5003;51715;39.432;-77.518;2023-03-14T12:05:27;2;2;
65012;PMS5003;51715;39.432;-77.518;2023-03-14T12:08:09;4;3;
65012;PMS5003;51715;39.432;-77.518;2023-03-14T12:11:16;1;1;
65012;PMS5003;51715;39.432;-77.518;2023-03-14T12:13:49;2;2;
65012;PMS5003;51715;39.432;-77.518;2023-03-14T12:16:23;1;1;
65012;PMS5003;51715;39.432;-77.518;2023-03-14T12:18:58;1;1;
65012;PMS5003;51715;39.432;-77.518;2023-03-14T12:21:52;2;2;
65012;PMS5003;51715;39.432;-77.518;2023-03-14T12:24:26;1;1;
65012;PMS5003;51715;39.432;-77.518;2023-03-14T12:26:56;1;1;
65012;PMS5003;51715;39.432;-77.518;2023-03-14T12:29:27;1;1;
65012;PMS5003;51715;39.432;-77.518;2023-03-14T12:32:27;0;0;
65012;PMS5003;51715;39.432;-77.518;2023-03-14T12:34:55;1;1;
65012;PMS5003;51715;39.432;-77.518;2023-03-14T12:37:34;2;2;
65012;PMS5003;51715;39.432;-77.518;2023-03-14T12:40:15;1;0;
65012;PMS5003;51715;39.432;-77.518;2023-03-14T12:42:53;2;2;
65012;PMS5003;51715;39.432;-77.518;2023-03-14T12:45:26;2;1;
65012;PMS5003;51715;39.432;-77.518;2023-03-14T12:48:03;1;1;
65012;PMS5003;51715;39.432;-77.518;2023-03-14T12:50:40;1;1;
65012;PMS5003;51715;39.432;-77.518;2023-03-14T12:53:19;1;1;
65012;PMS5003;51715;39.432;-77.518;2023-03-14T12:56:28;1;1;
65012;PMS5003;51715;39.432;-77.518;2023-03-14T12:59:16;2;2;
65012;PMS5003;51715;39.432;-77.518;2023-03-14T13:01:56;0;0;
65012;PMS5003;51715;39.432;-77.518;2023-03-14T13:04:29;1;1;
65012;PMS5003;51715;39.432;-77.518;2023-03-14T13:07:01;6;3;
65012;PMS5003;51715;39.432;-77.518;2023-03-14T13:09:52;4;3;
65012;PMS5003;51715;39.432;-77.518;2023-03-14T13:12:25;10;8;
65012;PMS5003;51715;39.432;-77.518;2023-03-14T13:14:57;16;11;
65012;PMS5003;51715;39.432;-77.518;2023-03-14T13:17:29;5;4;
65012;PMS5003;51715;39.432;-77.518;2023-03-14T13:20:01;2;1;
65012;PMS5003;51715;39.432;-77.518;2023-03-14T13:22:36;10;9;
65012;PMS5003;51715;39.432;-77.518;2023-03-14T13:25:07;7;6;
65012;PMS5003;51715;39.432;-77.518;2023-03-14T13:27:37;7;5;
65012;PMS5003;51715;39.432;-77.518;2023-03-14T13:30:24;6;4;
65012;PMS5003;51715;39.432;-77.518;2023-03-14T13:32:54;3;2;
65012;PMS5003;51715;39.432;-77.518;2023-03-14T13:35:24;2;2;
65012;PMS5003;51715;39.432;-77.518;2023-03-14T13:37:56;6;3;
65012;PMS5003;51715;39.432;-77.518;2023-03-14T13:40:28;5;3;
65012;PMS5003;51715;39.432;-77.518;2023-03-14T13:43:01;8;6;
65012;PMS5003;51715;39.432;-77.518;2023-03-14T13:45:41;1;1;
65012;PMS5003;51715;39.432;-77.518;2023-03-14T13:48:13;2;1;
65012;PMS5003;51715;39.432;-77.518;2023-03-14T13:50:44;2;1;
65012;PMS5003;51715;39.432;-77.518;2023-03-14T13:53:16;3;2;
65012;PMS5003;51715;39.432;-77.518;2023-03-14T13:55:44;3;3;
65012;PMS5003;51715;39.432;-77.518;2023-03-14T13:58:20;3;2;
65012;PMS5003;51715;39.432;-77.518;2023-03-14T14:01:23;0;0;
65012;PMS5003;51715;39.432;-77.518;2023-03-14T14:03:54;10;10;
65012;PMS5003;51715;39.432;-77.518;2023-03-14T14:06:26;6;5;
65012;PMS5003;51715;39.432;-77.518;2023-03-14T14:08:58;4;4;
65012;PMS5003;51715;39.432;-77.518;2023-03-14T14:11:32;6;5;
65012;PMS5003;51715;39.432;-77.518;2023-03-14T14:14:10;5;3;
65012;PMS5003;51715;39.432;-77.518;2023-03-14T14:16:44;3;3;
65012;PMS5003;51715;39.432;-77.518;2023-03-14T14:19:16;1;1;
65012;PMS5003;51715;39.432;-77.518;2023-03-14T14:21:45;1;1;
65012;PMS5003;51715;39.432;-77.518;2023-03-14T14:24:15;2;2;
65012;PMS5003;51715;39.432;-77.518;2023-03-14T14:26:46;0;0;
65012;PMS5003;51715;39.432;-77.518;2023-03-14T14:29:23;2;2;
65012;PMS5003;51715;39.432;-77.518;2023-03-14T14:32:03;1;1;
65012;PMS5003;51715;39.432;-77.518;2023-03-14T14:34:40;5;4;
65012;PMS5003;51715;39.432;-77.518;2023-03-14T14:37:26;6;6;
65012;PMS5003;51715;39.432;-77.518;2023-03-14T14:39:56;9;8;
65012;PMS5003;51715;39.432;-77.518;2023-03-14T14:42:27;7;7;
65012;PMS5003;51715;39.432;-77.518;2023-03-14T14:44:57;10;7;
65012;PMS5003;51715;39.432;-77.518;2023-03-14T14:47:27;3;3;
65012;PMS5003;51715;39.432;-77.518;2023-03-14T14:49:59;2;2;
65012;PMS5003;51715;39.432;-77.518;2023-03-14T14:52:33;1;1;
65012;PMS5003;51715;39.432;-77.518;2023-03-14T14:55:17;5;5;
65012;PMS5003;51715;39.432;-77.518;2023-03-14T14:57:48;5;5;
65012;PMS5003;51715;39.432;-77.518;2023-03-14T15:00:19;4;4;
65012;PMS5003;51715;39.432;-77.518;2023-03-14T15:02:50;5;5;
65012;PMS5003;51715;39.432;-77.518;2023-03-14T15:05:21;1;1;
65012;PMS5003;51715;39.432;-77.518;2023-03-14T15:07:51;0;0;
65012;PMS5003;51715;39.432;-77.518;2023-03-14T15:10:20;2;1;
65012;PMS5003;51715;39.432;-77.518;2023-03-14T15:12:50;2;2;
65012;PMS5003;51715;39.432;-77.518;2023-03-14T15:15:18;1;1;
65012;PMS5003;51715;39.432;-77.518;2023-03-14T15:17:47;4;4;
65012;PMS5003;51715;39.432;-77.518;2023-03-14T15:20:17;4;4;
65012;PMS5003;51715;39.432;-77.518;2023-03-14T15:22:46;3;3;
65012;PMS5003;51715;39.432;-77.518;2023-03-14T15:25:15;2;2;
65012;PMS5003;51715;39.432;-77.518;2023-03-14T15:27:43;4;2;
65012;PMS5003;51715;39.432;-77.518;2023-03-14T15:30:13;3;3;
65012;PMS5003;51715;39.432;-77.518;2023-03-14T15:32:43;2;2;
65012;PMS5003;51715;39.432;-77.518;2023-03-14T15:35:12;1;1;
65012;PMS5003;51715;39.432;-77.518;2023-03-14T15:37:40;4;4;
65012;PMS5003;51715;39.432;-77.518;2023-03-14T15:40:09;2;2;
65012;PMS5003;51715;39.432;-77.518;2023-03-14T15:42:41;1;1;
65012;PMS5003;51715;39.432;-77.518;2023-03-14T15:45:10;4;4;
65012;PMS5003;51715;39.432;-77.518;2023-03-14T15:47:38;1;1;
65012;PMS5003;51715;39.432;-77.518;2023-03-14T15:50:08;3;3;
65012;PMS5003;51715;39.432;-77.518;2023-03-14T15:52:37;1;1;
65012;PMS5003;51715;39.432;-77.518;2023-03-14T15:55:06;3;3;
65012;PMS5003;51715;39.432;-77.518;2023-03-14T15:57:34;0;0;
65012;PMS5003;51715;39.432;-77.518;2023-03-14T16:00:02;1;1;
65012;PMS5003;51715;39.432;-77.518;2023-03-14T16:02:31;3;3;
65012;PMS5003;51715;39.432;-77.518;2023-03-14T16:05:00;2;2;
65012;PMS5003;51715;39.432;-77.518;2023-03-14T16:07:28;1;1;
65012;PMS5003;51715;39.432;-77.518;2023-03-14T16:09:56;1;1;
65012;PMS5003;51715;39.432;-77.518;2023-03-14T16:12:25;1;1;
65012;PMS5003;51715;39.432;-77.518;2023-03-14T16:14:54;1;1;
65012;PMS5003;51715;39.432;-77.518;2023-03-14T16:17:23;1;1;
65012;PMS5003;51715;39.432;-77.518;2023-03-14T16:19:51;1;1;
65012;PMS5003;51715;39.432;-77.518;2023-03-14T16:22:20;0;0;
65012;PMS5003;51715;39.432;-77.518;2023-03-14T16:24:49;2;2;
65012;PMS5003;51715;39.432;-77.518;2023-03-14T16:27:17;2;2;
65012;PMS5003;51715;39.432;-77.518;2023-03-14T16:29:45;2;2;